Time;durP1;ratioP1;P1;durP2;ratioP2;P2;SDS_P1;SDS_P2;PMS_P1;PMS_P2;Temp;Humidity;BMP_temperature;BMP_pressure;BME280_temperature;BME280_humidity;BME280_pressure;Samples;Min_cycle;Max_cycle;Signal;HPM_P1;HPM_P2
2022/01/18 00:01:17;;;;;;;8.87;6.97;;;;;;;-143.37;100.00;62585.38;4952627;29;20467;-80
2022/01/18 00:03:52;;;;;;;10.40;8.27;;;;;;;-143.37;100.00;62585.38;4952530;28;20830;-80
2022/01/18 00:06:28;;;;;;;10.60;7.50;;;;;;;-143.37;100.00;62585.38;4952865;29;20490;-80
2022/01/18 00:09:04;;;;;;;10.20;8.03;;;;;;;-143.37;100.00;62585.38;4951363;28;20450;-80
2022/01/18 00:11:45;;;;;;;11.03;8.23;;;;;;;-143.37;100.00;62585.38;4952941;29;20449;-80
2022/01/18 00:14:26;;;;;;;11.10;7.30;;;;;;;-143.37;100.00;62585.38;4968474;28;20439;-80
2022/01/18 00:17:16;;;;;;;11.63;8.43;;;;;;;-143.37;100.00;62585.38;4958085;28;20938;-80
2022/01/18 00:19:55;;;;;;;11.27;8.23;;;;;;;-143.37;100.00;62585.38;4952234;29;20458;-80
2022/01/18 00:22:31;;;;;;;10.73;8.60;;;;;;;-143.37;100.00;62585.38;4936577;29;20446;-80
2022/01/18 00:25:07;;;;;;;10.17;8.10;;;;;;;-143.37;100.00;62585.38;4936235;29;20427;-80
2022/01/18 00:27:44;;;;;;;9.30;7.97;;;;;;;-143.37;100.00;62585.38;4953963;28;20462;-80
2022/01/18 00:30:40;;;;;;;9.00;7.90;;;;;;;-143.37;100.00;62585.38;4955782;29;20537;-79
2022/01/18 00:33:20;;;;;;;11.80;9.10;;;;;;;-143.37;100.00;62585.38;4955706;29;20444;-80
2022/01/18 00:36:01;;;;;;;11.13;8.20;;;;;;;-143.37;100.00;62585.38;4938978;29;20446;-79
2022/01/18 00:38:46;;;;;;;10.67;8.43;;;;;;;-143.37;100.00;62585.38;4955325;29;20530;-80
2022/01/18 00:41:24;;;;;;;12.30;9.13;;;;;;;-143.37;100.00;62585.38;4960156;28;20453;-80
2022/01/18 00:44:01;;;;;;;11.70;9.47;;;;;;;-143.37;100.00;62585.38;4974471;28;20549;-80
2022/01/18 00:46:37;;;;;;;11.97;9.03;;;;;;;-143.37;100.00;62585.38;4958957;28;20450;-81
2022/01/18 00:49:14;;;;;;;10.93;8.33;;;;;;;-143.37;100.00;62585.38;4955408;29;20455;-80
2022/01/18 00:51:54;;;;;;;12.60;8.87;;;;;;;-143.37;100.00;62585.38;4955504;29;20466;-80
2022/01/18 00:54:37;;;;;;;12.47;8.47;;;;;;;-143.37;100.00;62585.38;4940918;29;20826;-80
2022/01/18 00:57:12;;;;;;;11.73;9.27;;;;;;;-143.37;100.00;62585.38;4954766;29;20442;-81
2022/01/18 00:59:49;;;;;;;10.30;7.73;;;;;;;-143.37;100.00;62585.38;4956306;29;20855;-81
2022/01/18 01:02:25;;;;;;;12.10;8.73;;;;;;;-143.37;100.00;62585.38;4956053;29;20806;-80
2022/01/18 01:05:00;;;;;;;11.97;8.73;;;;;;;-143.37;100.00;62585.38;4955625;29;20455;-82
2022/01/18 01:07:37;;;;;;;14.00;10.47;;;;;;;-143.37;100.00;62585.38;4959316;28;20455;-79
2022/01/18 01:10:13;;;;;;;13.50;9.33;;;;;;;-143.37;100.00;62585.38;4951158;29;20459;-80
2022/01/18 01:12:48;;;;;;;10.83;8.43;;;;;;;-143.37;100.00;62585.38;4940489;29;20451;-79
2022/01/18 01:15:27;;;;;;;10.03;8.50;;;;;;;-143.37;100.00;62585.38;4939920;29;20443;-80
2022/01/18 01:18:19;;;;;;;11.00;9.37;;;;;;;-143.37;100.00;62585.38;4935014;29;20487;-80
2022/01/18 01:35:38;;;;;;;14.83;9.57;;;;;;;-143.37;100.00;62585.38;4926756;28;20934;-81
2022/01/18 01:44:06;;;;;;;14.87;9.37;;;;;;;-143.37;100.00;62585.38;4950107;29;20960;-80
2022/01/18 01:46:42;;;;;;;12.80;9.20;;;;;;;-143.37;100.00;62585.38;4954354;29;20942;-81
2022/01/18 01:49:22;;;;;;;13.30;9.60;;;;;;;-143.37;100.00;62585.38;4969520;28;20435;-80
2022/01/18 01:51:58;;;;;;;15.00;11.30;;;;;;;-143.37;100.00;62585.38;4954443;29;20931;-80
2022/01/18 01:54:34;;;;;;;15.13;10.20;;;;;;;-143.37;100.00;62585.38;4938093;29;20976;-80
2022/01/18 01:57:10;;;;;;;15.83;10.23;;;;;;;-143.37;100.00;62585.38;4938220;29;20443;-80
2022/01/18 01:59:46;;;;;;;14.87;10.30;;;;;;;-143.37;100.00;62585.38;4955556;28;20537;-80
2022/01/18 03:15:22;;;;;;;16.13;11.77;;;;;;;-143.37;100.00;62585.38;4931677;29;20479;-80
2022/01/18 03:17:58;;;;;;;16.57;12.10;;;;;;;-143.37;100.00;62585.38;4933554;29;20462;-80
2022/01/18 03:20:34;;;;;;;17.43;13.10;;;;;;;-143.37;100.00;62585.38;4937629;29;20493;-79
2022/01/18 03:23:14;;;;;;;16.90;13.00;;;;;;;-143.37;100.00;62585.38;4952829;29;20450;-80
2022/01/18 03:25:56;;;;;;;19.37;11.97;;;;;;;-143.37;100.00;62585.38;4954348;28;20439;-80
2022/01/18 03:28:31;;;;;;;19.70;14.07;;;;;;;-143.37;100.00;62585.38;4969040;28;20930;-80
2022/01/18 03:31:08;;;;;;;20.00;13.50;;;;;;;-143.37;100.00;62585.38;4953371;28;20451;-79
2022/01/18 03:33:43;;;;;;;21.20;13.20;;;;;;;-143.37;100.00;62585.38;4934963;29;20457;-80
2022/01/18 03:36:19;;;;;;;17.90;11.53;;;;;;;-143.37;100.00;62585.38;4952686;29;20945;-79
2022/01/18 03:38:54;;;;;;;15.33;11.70;;;;;;;-143.37;100.00;62585.38;4953011;29;20522;-80
2022/01/18 03:41:30;;;;;;;21.03;12.70;;;;;;;-143.37;100.00;62585.38;4957727;28;20457;-80
2022/01/18 03:44:06;;;;;;;17.00;12.40;;;;;;;-143.37;100.00;62585.38;4955483;28;20469;-80
2022/01/18 03:46:43;;;;;;;19.90;12.97;;;;;;;-143.37;100.00;62585.38;4952773;29;20561;-80
2022/01/18 03:49:20;;;;;;;20.47;13.90;;;;;;;-143.37;100.00;62585.38;4936950;29;20446;-79
2022/01/18 03:51:56;;;;;;;22.00;15.20;;;;;;;-143.37;100.00;62585.38;4936876;29;20544;-79
2022/01/18 03:54:31;;;;;;;17.87;12.70;;;;;;;-143.37;100.00;62585.38;4952336;29;20454;-80
2022/01/18 03:57:07;;;;;;;17.50;13.33;;;;;;;-143.37;100.00;62585.38;4952192;29;20478;-79
2022/01/18 03:59:42;;;;;;;21.60;14.47;;;;;;;-143.37;100.00;62585.38;4943642;29;20953;-79
2022/01/18 04:02:19;;;;;;;20.63;14.10;;;;;;;-143.37;100.00;62585.38;4955220;28;20442;-79
2022/01/18 04:04:55;;;;;;;19.23;13.67;;;;;;;-143.37;100.00;62585.38;4960382;28;20470;-80
2022/01/18 04:07:31;;;;;;;20.97;15.17;;;;;;;-143.37;100.00;62585.38;4971206;28;20545;-80
2022/01/18 04:10:07;;;;;;;19.33;13.20;;;;;;;-143.37;100.00;62585.38;4949961;29;20446;-80
2022/01/18 04:12:43;;;;;;;19.17;12.80;;;;;;;-143.37;100.00;62585.38;4956045;29;20451;-79
2022/01/18 04:15:19;;;;;;;17.20;13.30;;;;;;;-143.37;100.00;62585.38;4955356;28;20494;-79
2022/01/18 04:18:15;;;;;;;19.73;15.23;;;;;;;-143.37;100.00;62585.38;4957733;29;20454;-80
2022/01/18 04:27:01;;;;;;;20.37;12.70;;;;;;;-143.37;100.00;62585.38;4950624;29;20462;-80
2022/01/18 04:29:36;;;;;;;20.17;13.70;;;;;;;-143.37;100.00;62585.38;4940823;29;20446;-79
2022/01/18 04:32:12;;;;;;;23.17;13.80;;;;;;;-143.37;100.00;62585.38;4955873;29;20790;-80
2022/01/18 04:34:49;;;;;;;18.77;13.07;;;;;;;-143.37;100.00;62585.38;4944376;28;20443;-80
2022/01/18 04:37:25;;;;;;;19.93;14.60;;;;;;;-143.37;100.00;62585.38;4955549;29;20929;-79
2022/01/18 04:40:07;;;;;;;17.80;14.50;;;;;;;-143.37;100.00;62585.38;4940049;29;20541;-79
2022/01/18 04:42:58;;;;;;;20.87;14.53;;;;;;;-143.37;100.00;62585.38;4963591;28;20447;-80
2022/01/18 04:48:32;;;;;;;23.80;15.00;;;;;;;-143.37;100.00;62585.38;4967781;28;20443;-80
2022/01/18 04:51:11;;;;;;;21.77;13.80;;;;;;;-143.37;100.00;62585.38;4939318;29;20455;-80
2022/01/18 04:53:55;;;;;;;21.40;16.03;;;;;;;-143.37;100.00;62585.38;4938164;29;20817;-79
2022/01/18 04:59:23;;;;;;;22.73;14.47;;;;;;;-143.37;100.00;62585.38;4954932;29;20498;-79
2022/01/18 05:01:59;;;;;;;26.77;16.43;;;;;;;-143.37;100.00;62585.38;4950252;29;20854;-80
2022/01/18 05:04:34;;;;;;;25.47;16.13;;;;;;;-143.37;100.00;62585.38;4936260;29;20475;-80
2022/01/18 05:07:13;;;;;;;23.23;15.23;;;;;;;-143.37;100.00;62585.38;4936455;29;20836;-79
2022/01/18 05:09:53;;;;;;;21.97;13.97;;;;;;;-143.37;100.00;62585.38;4949833;29;20961;-80
2022/01/18 05:12:40;;;;;;;21.03;15.00;;;;;;;-143.37;100.00;62585.38;4953571;28;20521;-80
2022/01/18 05:15:41;;;;;;;21.93;15.30;;;;;;;-143.37;100.00;62585.38;4937951;29;20811;-80
2022/01/18 05:21:20;;;;;;;22.20;14.50;;;;;;;-143.37;100.00;62585.38;4956472;28;20451;-80
2022/01/18 05:23:57;;;;;;;22.03;15.33;;;;;;;-143.37;100.00;62585.38;4971322;28;20522;-79
2022/01/18 05:26:33;;;;;;;22.70;14.87;;;;;;;-143.37;100.00;62585.38;4938230;29;21035;-80
2022/01/18 05:29:08;;;;;;;25.27;17.27;;;;;;;-143.37;100.00;62585.38;4949834;29;20534;-80
2022/01/18 05:31:44;;;;;;;25.70;15.43;;;;;;;-143.37;100.00;62585.38;4954578;29;20465;-81
2022/01/18 05:34:20;;;;;;;27.67;17.77;;;;;;;-143.37;100.00;62585.38;4955593;28;20431;-80
2022/01/18 05:36:56;;;;;;;24.27;16.70;;;;;;;-143.37;100.00;62585.38;4961685;28;20457;-80
2022/01/18 05:39:33;;;;;;;24.30;15.63;;;;;;;-143.37;100.00;62585.38;4970471;28;20434;-80
2022/01/18 05:42:09;;;;;;;24.17;16.00;;;;;;;-143.37;100.00;62585.38;4962615;28;20466;-79
2022/01/18 05:44:46;;;;;;;29.83;17.53;;;;;;;-143.37;100.00;62585.38;4943401;28;20562;-79
2022/01/18 05:47:21;;;;;;;27.60;18.40;;;;;;;-143.37;100.00;62585.38;4937435;29;20453;-79
2022/01/18 05:49:57;;;;;;;24.90;16.67;;;;;;;-143.37;100.00;62585.38;4969847;28;20932;-80
2022/01/18 05:52:33;;;;;;;28.23;17.17;;;;;;;-143.37;100.00;62585.38;4969919;28;20944;-80
2022/01/18 05:55:10;;;;;;;29.87;18.13;;;;;;;-143.37;100.00;62585.38;4955283;28;20458;-80
2022/01/18 05:57:46;;;;;;;28.47;16.87;;;;;;;-143.37;100.00;62585.38;4957935;28;20824;-79
2022/01/18 06:00:23;;;;;;;22.37;15.57;;;;;;;-143.37;100.00;62585.38;4953933;28;20553;-80
2022/01/18 06:03:11;;;;;;;26.97;16.93;;;;;;;-143.37;100.00;62585.38;4939135;29;20446;-80
2022/01/18 06:08:39;;;;;;;22.47;16.17;;;;;;;-143.37;100.00;62585.38;4936343;29;20435;-80
2022/01/18 06:11:16;;;;;;;25.67;16.50;;;;;;;-143.37;100.00;62585.38;4936925;29;20533;-80
2022/01/18 06:13:51;;;;;;;27.00;16.50;;;;;;;-143.37;100.00;62585.38;4936561;29;20470;-80
2022/01/18 06:16:27;;;;;;;24.50;16.70;;;;;;;-143.37;100.00;62585.38;4950551;29;20493;-80
2022/01/18 06:19:03;;;;;;;25.97;17.27;;;;;;;-143.37;100.00;62585.38;4952158;29;20454;-80
2022/01/18 06:21:39;;;;;;;26.87;16.83;;;;;;;-143.37;100.00;62585.38;4952510;28;20791;-80
2022/01/18 06:24:15;;;;;;;28.43;16.20;;;;;;;-143.37;100.00;62585.38;4952030;28;20454;-80
2022/01/18 06:26:51;;;;;;;26.70;17.10;;;;;;;-143.37;100.00;62585.38;4952962;29;20460;-80
2022/01/18 06:29:27;;;;;;;25.30;17.73;;;;;;;-143.37;100.00;62585.38;4942087;29;20461;-80
2022/01/18 06:32:03;;;;;;;23.23;16.93;;;;;;;-143.37;100.00;62585.38;4969734;28;20456;-80
2022/01/18 06:34:38;;;;;;;28.17;17.27;;;;;;;-143.37;100.00;62585.38;4935039;29;20461;-79
2022/01/18 06:37:14;;;;;;;23.23;16.27;;;;;;;-143.37;100.00;62585.38;4934285;29;20454;-79
2022/01/18 06:39:49;;;;;;;28.60;19.80;;;;;;;-143.37;100.00;62585.38;4943140;29;20460;-80
2022/01/18 06:42:26;;;;;;;25.53;15.87;;;;;;;-143.37;100.00;62585.38;4963499;28;20958;-80
2022/01/18 06:45:02;;;;;;;32.27;19.00;;;;;;;-143.37;100.00;62585.38;4948337;29;20490;-79
2022/01/18 06:47:38;;;;;;;33.10;17.77;;;;;;;-143.37;100.00;62585.38;4952062;29;20482;-79
2022/01/18 06:50:16;;;;;;;29.73;18.07;;;;;;;-143.37;100.00;62585.38;4947279;29;20462;-80
2022/01/18 06:52:53;;;;;;;25.10;17.30;;;;;;;-143.37;100.00;62585.38;4952924;29;20434;-79
2022/01/18 06:55:29;;;;;;;27.10;16.10;;;;;;;-143.37;100.00;62585.38;4935647;29;20785;-79
2022/01/18 06:58:05;;;;;;;28.87;18.57;;;;;;;-143.37;100.00;62585.38;4937348;29;20786;-80
2022/01/18 07:00:41;;;;;;;26.83;18.03;;;;;;;-143.37;100.00;62585.38;4953103;29;20962;-80
2022/01/18 07:03:17;;;;;;;27.60;17.83;;;;;;;-143.37;100.00;62585.38;4952988;29;20449;-79
2022/01/18 07:05:52;;;;;;;35.50;19.07;;;;;;;-143.37;100.00;62585.38;4950781;29;20464;-80
2022/01/18 07:08:30;;;;;;;26.70;17.63;;;;;;;-143.37;100.00;62585.38;4936745;29;20442;-79
2022/01/18 07:11:07;;;;;;;31.17;19.03;;;;;;;-143.37;100.00;62585.38;4948718;29;20944;-79
2022/01/18 07:13:43;;;;;;;29.37;17.83;;;;;;;-143.37;100.00;62585.38;4952421;29;20782;-80
2022/01/18 07:16:19;;;;;;;31.90;19.17;;;;;;;-143.37;100.00;62585.38;4960558;28;20512;-79
2022/01/18 07:18:54;;;;;;;40.93;20.23;;;;;;;-143.37;100.00;62585.38;4950783;29;20792;-79
2022/01/18 07:21:30;;;;;;;33.10;18.70;;;;;;;-143.37;100.00;62585.38;4953060;28;20458;-79
2022/01/18 07:24:16;;;;;;;29.77;19.77;;;;;;;-143.37;100.00;62585.38;4952519;29;20681;-79
2022/01/18 07:26:51;;;;;;;27.93;18.80;;;;;;;-143.37;100.00;62585.38;4951427;29;20449;-80
2022/01/18 07:29:28;;;;;;;27.97;17.27;;;;;;;-143.37;100.00;62585.38;4952401;29;20491;-80
2022/01/18 07:32:05;;;;;;;28.70;16.83;;;;;;;-143.37;100.00;62585.38;4948143;28;20849;-80
2022/01/18 07:34:49;;;;;;;29.83;20.10;;;;;;;-143.37;100.00;62585.38;4931118;29;20442;-80
2022/01/18 07:37:24;;;;;;;32.33;18.07;;;;;;;-143.37;100.00;62585.38;4953228;28;20445;-80
2022/01/18 07:40:00;;;;;;;40.93;19.43;;;;;;;-143.37;100.00;62585.38;4937235;29;20954;-80
2022/01/18 07:42:35;;;;;;;34.13;20.37;;;;;;;-143.37;100.00;62585.38;4961292;28;20926;-80
2022/01/18 07:45:13;;;;;;;28.10;18.40;;;;;;;-143.37;100.00;62585.38;4956066;29;20563;-80
2022/01/18 07:47:49;;;;;;;28.33;18.73;;;;;;;-143.37;100.00;62585.38;4955877;29;20538;-80
2022/01/18 07:50:25;;;;;;;36.20;18.30;;;;;;;-143.37;100.00;62585.38;4930151;29;20537;-79
2022/01/18 07:53:01;;;;;;;28.70;18.60;;;;;;;-143.37;100.00;62585.38;4954904;29;20443;-80
